Main page
METAR-TAF:

METAR-TAF

Airports :

Princess Juliana International Airport

Sint Maarten, Netherlands Antilles

latitude: 18-03N, longitude: 063-07W, elevation: 4 m

Current weather observation

The report was made 51 minutes ago, at 11:00 UTC
Wind 8 kt from the East, varying between Northeast and East/Southeast
Temperature 27°C
Humidity 70%
Pressure 1016 hPa
Visibility 10 km or more
Few clouds at a height of 1800 ft

METAR: TNCM 231100Z 09008KT 050V120 9999 FEW018 27/21 Q1016 NOSIG RMK A3003

Time: 07:51 (11:51 UTC)

Forecast

The report was made 13 minutes ago, at 11:38 UTC
Forecast valid from 23 at 12 UTC to 24 at 12 UTC
Wind 12 kt from the East/Southeast
Visibility: 10 km
Scattered clouds at a height of 2500 ft
showers in vicinity

TAF: TNCM 231138Z 2312/2412 11012KT P6SM VCSH SCT025

Weather observations and forecasts of more than 4000 airports (METAR and TAF reports).

The available stations are represented by yellow and red dots on the map.

Hover mouse over dot to see the name of the station.

Then click to see weather observations and forecasts.

To change the map : click on the green buttons with a black cross to zoom in, on the green button with a dash to zoom out, or on the green arrows for adjacent maps.


METAR-TAF: